Time;durP1;ratioP1;P1;durP2;ratioP2;P2;SDS_P1;SDS_P2;PMS_P1;PMS_P2;Temp;Humidity;BMP_temperature;BMP_pressure;BME280_temperature;BME280_humidity;BME280_pressure;Samples;Min_cycle;Max_cycle;Signal;HPM_P1;HPM_P2
2023/12/09 00:01:20;;;;;;;31.95;8.55;;;;;;;7.99;100.00;100843.28;3609476;39;20059;-65
2023/12/09 00:03:45;;;;;;;27.42;8.68;;;;;;;8.00;100.00;100831.63;3600956;39;20043;-65
2023/12/09 00:06:11;;;;;;;25.27;8.85;;;;;;;7.99;100.00;100835.25;3608790;39;20296;-64
2023/12/09 00:08:37;;;;;;;26.30;8.18;;;;;;;7.97;100.00;100831.78;3609742;39;20067;-65
2023/12/09 00:11:03;;;;;;;27.15;8.43;;;;;;;7.98;100.00;100828.16;3608366;39;20047;-64
2023/12/09 00:13:32;;;;;;;26.63;8.88;;;;;;;7.95;100.00;100828.31;3609995;39;20047;-65
2023/12/09 00:15:58;;;;;;;23.80;7.80;;;;;;;7.94;100.00;100826.59;3615448;39;20043;-65
2023/12/09 00:18:23;;;;;;;28.40;8.27;;;;;;;7.95;100.00;100822.09;3612328;39;20067;-64
2023/12/09 00:20:49;;;;;;;24.83;7.85;;;;;;;7.76;100.00;100795.41;3611931;39;20046;-64
2023/12/09 00:23:15;;;;;;;25.33;7.85;;;;;;;7.94;100.00;100831.09;3608732;39;20050;-64
2023/12/09 00:25:41;;;;;;;25.50;8.20;;;;;;;7.89;100.00;100828.63;3609269;39;20124;-64
2023/12/09 00:28:07;;;;;;;28.63;8.70;;;;;;;7.93;100.00;100834.69;3610170;39;20066;-64
2023/12/09 00:30:32;;;;;;;22.15;8.05;;;;;;;7.90;100.00;100828.56;3612384;39;20070;-65
2023/12/09 00:32:58;;;;;;;25.77;8.00;;;;;;;7.96;100.00;100840.78;3613790;39;20046;-65
2023/12/09 00:35:23;;;;;;;23.83;8.43;;;;;;;7.98;100.00;100833.50;3610484;39;20051;-64
2023/12/09 00:37:50;;;;;;;27.02;7.82;;;;;;;8.00;100.00;100834.31;3610820;39;20066;-64
2023/12/09 00:40:18;;;;;;;26.55;7.80;;;;;;;8.03;100.00;100826.13;3607956;39;20047;-64
2023/12/09 00:42:44;;;;;;;24.50;7.32;;;;;;;8.07;100.00;100826.81;3609939;39;20078;-64
2023/12/09 00:45:10;;;;;;;29.80;9.07;;;;;;;8.04;100.00;100825.16;3613066;39;20050;-65
2023/12/09 00:47:36;;;;;;;25.67;8.88;;;;;;;8.03;100.00;100830.63;3613792;39;20066;-64
2023/12/09 00:50:02;;;;;;;33.63;9.02;;;;;;;8.00;100.00;100826.28;3607485;39;20059;-64
2023/12/09 00:52:27;;;;;;;29.60;8.77;;;;;;;7.99;100.00;100829.91;3606020;39;20063;-64
2023/12/09 00:54:53;;;;;;;25.40;8.27;;;;;;;7.94;100.00;100825.72;3610064;39;20321;-64
2023/12/09 00:57:20;;;;;;;21.70;8.27;;;;;;;8.00;100.00;100825.41;3609898;39;20054;-64
2023/12/09 00:59:47;;;;;;;24.27;8.18;;;;;;;7.96;100.00;100807.75;3611286;39;20048;-64
2023/12/09 01:02:12;;;;;;;26.95;8.57;;;;;;;7.93;100.00;100815.94;3608915;39;20197;-64
2023/12/09 01:04:38;;;;;;;24.08;8.20;;;;;;;7.94;100.00;100813.22;3607545;39;20066;-64
2023/12/09 01:07:04;;;;;;;26.75;8.82;;;;;;;7.92;100.00;100817.75;3610460;39;20043;-64
2023/12/09 01:09:29;;;;;;;26.92;8.10;;;;;;;7.83;100.00;100818.22;3609459;39;20100;-64
2023/12/09 01:11:55;;;;;;;26.25;7.80;;;;;;;7.85;100.00;100819.03;3607115;39;20059;-64
2023/12/09 01:14:20;;;;;;;30.63;9.07;;;;;;;7.81;100.00;100815.66;3608589;39;20089;-64
2023/12/09 01:16:46;;;;;;;32.50;9.70;;;;;;;7.77;100.00;100805.16;3607147;39;20055;-64
2023/12/09 01:19:12;;;;;;;27.13;9.18;;;;;;;7.76;100.00;100808.78;3607981;39;20054;-64
2023/12/09 01:21:37;;;;;;;24.60;8.18;;;;;;;7.74;100.00;100807.97;3610425;39;20391;-64
2023/12/09 01:24:04;;;;;;;25.40;8.57;;;;;;;7.74;100.00;100813.34;3610168;39;20395;-64
2023/12/09 01:26:30;;;;;;;23.38;8.60;;;;;;;7.70;100.00;100806.41;3607425;39;20399;-64
2023/12/09 01:28:57;;;;;;;22.10;8.80;;;;;;;7.65;100.00;100802.16;3612101;39;20387;-64
2023/12/09 01:31:22;;;;;;;33.85;9.70;;;;;;;7.63;100.00;100812.06;3605877;39;20055;-64
2023/12/09 01:33:48;;;;;;;24.63;8.00;;;;;;;7.61;100.00;100808.63;3612674;39;20071;-64
2023/12/09 01:36:13;;;;;;;28.42;8.75;;;;;;;7.58;100.00;100814.13;3608945;39;20095;-64
2023/12/09 01:38:39;;;;;;;28.73;8.75;;;;;;;7.60;100.00;100806.00;3609312;39;20054;-64
2023/12/09 01:41:05;;;;;;;33.00;9.52;;;;;;;7.58;100.00;100816.81;3607105;39;20411;-64
2023/12/09 01:43:30;;;;;;;27.40;9.60;;;;;;;7.56;100.00;100807.97;3606304;39;20063;-64
2023/12/09 01:46:06;;;;;;;29.67;9.30;;;;;;;7.54;100.00;100801.81;3611117;39;20058;-64
2023/12/09 01:48:33;;;;;;;26.48;8.63;;;;;;;7.50;100.00;100799.41;3606882;39;20051;-64
2023/12/09 01:51:01;;;;;;;25.40;8.70;;;;;;;7.48;100.00;100779.88;3610727;39;20063;-64
2023/12/09 01:53:30;;;;;;;30.52;9.88;;;;;;;7.43;100.00;100780.97;3610210;39;20059;-64
2023/12/09 01:56:01;;;;;;;33.55;10.80;;;;;;;7.42;100.00;100778.34;3609891;39;20064;-64
2023/12/09 01:58:26;;;;;;;27.20;9.40;;;;;;;7.39;100.00;100770.47;3610325;39;20116;-64
2023/12/09 02:00:54;;;;;;;22.33;8.45;;;;;;;7.36;100.00;100766.19;3610556;39;20096;-64
2023/12/09 02:03:19;;;;;;;28.45;8.98;;;;;;;7.36;100.00;100768.00;3608567;39;20106;-64
2023/12/09 02:05:45;;;;;;;24.15;8.68;;;;;;;7.31;100.00;100773.56;3610013;39;20390;-64
2023/12/09 02:08:11;;;;;;;26.23;9.57;;;;;;;7.31;100.00;100780.72;3611235;39;20050;-64
2023/12/09 02:10:38;;;;;;;27.17;9.30;;;;;;;7.28;100.00;100783.53;3609072;39;20476;-64
2023/12/09 02:13:20;;;;;;;25.00;9.88;;;;;;;7.25;100.00;100784.53;3600677;39;20081;-64
2023/12/09 02:16:11;;;;;;;23.92;8.77;;;;;;;7.20;100.00;100773.22;3609014;39;20116;-64
2023/12/09 02:18:43;;;;;;;24.48;8.90;;;;;;;7.17;100.00;100779.59;3608157;39;20051;-64
2023/12/09 02:21:09;;;;;;;23.92;8.60;;;;;;;7.07;100.00;100758.69;3611017;39;20055;-64
2023/12/09 02:23:35;;;;;;;22.30;8.95;;;;;;;7.12;100.00;100773.56;3610829;39;20051;-64
2023/12/09 02:26:16;;;;;;;24.88;8.13;;;;;;;7.11;100.00;100777.19;3608221;39;20057;-64
2023/12/09 02:28:56;;;;;;;30.73;9.32;;;;;;;7.10;100.00;100775.44;3606886;39;20039;-64
2023/12/09 02:31:30;;;;;;;26.80;9.38;;;;;;;7.08;100.00;100766.66;3608464;39;20124;-64
2023/12/09 02:34:01;;;;;;;25.17;8.52;;;;;;;7.08;100.00;100763.13;3610621;39;20051;-64
2023/12/09 02:36:30;;;;;;;27.30;9.45;;;;;;;7.06;100.00;100765.00;3608195;39;20372;-64
2023/12/09 02:38:59;;;;;;;22.80;8.13;;;;;;;7.04;100.00;100753.50;3609522;39;20048;-64
2023/12/09 02:41:27;;;;;;;27.92;8.85;;;;;;;7.04;100.00;100742.81;3607822;39;20051;-64
2023/12/09 02:43:53;;;;;;;27.33;9.18;;;;;;;7.00;100.00;100742.09;3608411;39;20051;-64
2023/12/09 02:46:19;;;;;;;22.98;8.52;;;;;;;6.97;100.00;100737.75;3608947;39;20047;-64
2023/12/09 02:48:45;;;;;;;28.80;8.80;;;;;;;7.06;100.00;100731.13;3606652;39;20054;-64
2023/12/09 02:51:10;;;;;;;22.52;8.30;;;;;;;7.08;100.00;100739.94;3609021;39;20086;-64
2023/12/09 02:53:36;;;;;;;24.95;9.10;;;;;;;7.08;100.00;100739.94;3606033;39;20323;-64
2023/12/09 02:56:02;;;;;;;26.45;8.35;;;;;;;7.12;100.00;100746.84;3608859;39;20062;-65
2023/12/09 02:58:27;;;;;;;23.60;7.70;;;;;;;7.11;100.00;100731.75;3605572;39;20063;-64
2023/12/09 03:00:53;;;;;;;31.85;8.48;;;;;;;7.13;100.00;100743.22;3606979;39;20323;-64
2023/12/09 03:03:19;;;;;;;27.13;8.32;;;;;;;7.12;100.00;100713.91;3607282;39;20058;-64
2023/12/09 03:05:44;;;;;;;25.00;8.07;;;;;;;7.06;100.00;100731.13;3609693;39;20063;-64
2023/12/09 03:08:10;;;;;;;33.33;8.32;;;;;;;7.09;100.00;100709.56;3611448;39;20054;-64
2023/12/09 03:10:35;;;;;;;26.35;8.30;;;;;;;7.06;100.00;100738.25;3611397;39;20335;-64
2023/12/09 03:13:01;;;;;;;25.30;8.02;;;;;;;7.08;100.00;100702.50;3611837;39;20062;-65
2023/12/09 03:15:26;;;;;;;30.27;8.93;;;;;;;7.03;100.00;100731.25;3611437;39;20367;-65
2023/12/09 03:17:52;;;;;;;19.52;7.53;;;;;;;7.05;100.00;100712.50;3613268;39;20298;-65
2023/12/09 03:20:18;;;;;;;30.95;7.43;;;;;;;7.06;100.00;100736.47;3611765;39;20091;-65
2023/12/09 03:22:44;;;;;;;25.60;7.82;;;;;;;7.09;100.00;100720.28;3610163;39;20057;-64
2023/12/09 03:25:09;;;;;;;25.90;7.53;;;;;;;7.13;100.00;100729.00;3608620;39;20066;-65
2023/12/09 03:27:35;;;;;;;23.15;7.30;;;;;;;7.12;100.00;100712.09;3609301;39;20077;-64
2023/12/09 03:30:00;;;;;;;26.98;7.55;;;;;;;7.12;100.00;100729.94;3608167;39;20059;-65
2023/12/09 03:32:26;;;;;;;25.85;7.07;;;;;;;7.09;100.00;100708.72;3606972;39;20410;-65
2023/12/09 03:34:51;;;;;;;28.77;6.90;;;;;;;7.10;100.00;100721.13;3610332;39;20043;-64
2023/12/09 03:37:17;;;;;;;27.58;7.53;;;;;;;7.10;100.00;100711.31;3609195;39;20111;-65
2023/12/09 03:39:42;;;;;;;26.08;6.97;;;;;;;7.10;100.00;100705.94;3607698;39;20055;-65
2023/12/09 03:42:08;;;;;;;23.42;7.60;;;;;;;7.10;100.00;100713.97;3609067;39;20410;-65
2023/12/09 03:44:34;;;;;;;28.77;7.15;;;;;;;7.10;100.00;100705.94;3607098;39;20353;-65
2023/12/09 03:46:59;;;;;;;23.48;7.07;;;;;;;7.10;100.00;100708.63;3610854;39;20126;-64
2023/12/09 03:49:25;;;;;;;31.58;7.47;;;;;;;7.09;100.00;100698.88;3606115;39;20051;-65
2023/12/09 03:51:50;;;;;;;22.33;6.50;;;;;;;7.11;100.00;100697.00;3607989;39;20274;-64
2023/12/09 03:54:16;;;;;;;23.70;6.13;;;;;;;7.10;100.00;100689.91;3607902;39;20058;-65
2023/12/09 03:56:42;;;;;;;29.52;6.53;;;;;;;7.07;100.00;100676.75;3608407;39;20063;-64
2023/12/09 03:59:07;;;;;;;23.55;6.35;;;;;;;7.06;100.00;100680.34;3611201;39;20049;-64
2023/12/09 04:01:33;;;;;;;25.55;6.50;;;;;;;7.04;100.00;100679.56;3608359;39;20161;-64
2023/12/09 04:03:58;;;;;;;25.20;7.30;;;;;;;7.02;100.00;100667.22;3607825;39;20323;-64
2023/12/09 04:06:24;;;;;;;22.08;5.95;;;;;;;7.02;100.00;100662.72;3606863;39;20052;-64
2023/12/09 04:08:49;;;;;;;25.77;6.57;;;;;;;7.01;100.00;100669.03;3606834;39;20051;-64
2023/12/09 04:11:15;;;;;;;21.52;6.43;;;;;;;7.02;100.00;100681.44;3606864;39;20046;-64
2023/12/09 04:13:41;;;;;;;27.88;5.95;;;;;;;7.01;100.00;100673.47;3608437;39;20093;-64
2023/12/09 04:16:07;;;;;;;18.45;6.43;;;;;;;7.01;100.00;100674.38;3598046;39;20403;-64
2023/12/09 04:18:33;;;;;;;19.45;5.47;;;;;;;7.03;100.00;100679.63;3606348;39;20059;-64
2023/12/09 04:20:58;;;;;;;24.52;6.13;;;;;;;7.01;100.00;100678.81;3608274;39;20123;-64
2023/12/09 04:23:24;;;;;;;25.80;5.22;;;;;;;7.03;100.00;100664.44;3606916;39;20054;-65
2023/12/09 04:25:50;;;;;;;20.27;5.82;;;;;;;7.05;100.00;100667.91;3605559;39;20051;-64
2023/12/09 04:28:16;;;;;;;19.17;5.88;;;;;;;7.03;100.00;100664.44;3606473;39;20052;-64
2023/12/09 04:30:41;;;;;;;27.65;6.20;;;;;;;7.02;100.00;100644.03;3609074;39;20405;-64
2023/12/09 04:33:07;;;;;;;21.40;5.97;;;;;;;7.01;100.00;100655.66;3606174;39;20060;-64
2023/12/09 04:35:32;;;;;;;18.35;5.72;;;;;;;7.03;100.00;100660.91;3607007;39;20042;-64
2023/12/09 04:37:58;;;;;;;18.42;5.53;;;;;;;7.02;100.00;100657.38;3606109;39;20061;-64
2023/12/09 04:40:24;;;;;;;19.65;5.85;;;;;;;7.01;100.00;100650.31;3606746;39;20300;-64
2023/12/09 04:42:49;;;;;;;24.27;6.63;;;;;;;6.99;100.00;100633.47;3605449;39;20070;-64
2023/12/09 04:45:15;;;;;;;24.67;5.53;;;;;;;7.01;100.00;100644.06;3607611;39;20066;-64
2023/12/09 04:47:40;;;;;;;23.65;5.82;;;;;;;7.03;100.00;100648.41;3608012;39;20495;-64
2023/12/09 04:50:10;;;;;;;16.63;5.38;;;;;;;7.00;100.00;100643.22;3606154;39;20086;-64
2023/12/09 04:52:37;;;;;;;21.23;5.65;;;;;;;7.00;100.00;100623.66;3605219;39;20059;-64
2023/12/09 04:55:03;;;;;;;20.65;5.70;;;;;;;7.02;100.00;100627.97;3607350;39;20084;-64
2023/12/09 04:57:30;;;;;;;18.48;5.45;;;;;;;7.06;100.00;100626.00;3605827;39;20101;-65
2023/12/09 04:59:56;;;;;;;21.48;5.38;;;;;;;7.06;100.00;100623.34;3604098;39;20043;-65
2023/12/09 05:02:22;;;;;;;15.95;5.40;;;;;;;7.08;100.00;100616.13;3607029;39;20303;-65
2023/12/09 05:04:48;;;;;;;20.20;5.72;;;;;;;7.08;100.00;100611.63;3603684;39;20056;-65
2023/12/09 05:07:14;;;;;;;24.83;6.03;;;;;;;7.08;100.00;100616.97;3604963;39;20059;-65
2023/12/09 05:09:40;;;;;;;24.17;5.45;;;;;;;7.08;100.00;100611.63;3607195;39;20141;-65
2023/12/09 05:12:05;;;;;;;28.50;5.93;;;;;;;7.08;100.00;100616.97;3606312;39;20055;-65
2023/12/09 05:14:31;;;;;;;21.40;5.75;;;;;;;7.08;100.00;100611.63;3604581;39;20058;-65
2023/12/09 05:16:56;;;;;;;21.98;6.00;;;;;;;7.09;100.00;100615.16;3605488;39;20082;-65
2023/12/09 05:19:22;;;;;;;24.90;6.03;;;;;;;6.96;100.00;100590.88;3607283;39;20048;-65
2023/12/09 05:21:48;;;;;;;23.13;5.63;;;;;;;7.08;100.00;100616.97;3605289;39;20269;-65
2023/12/09 05:24:13;;;;;;;18.75;5.50;;;;;;;6.93;100.00;100583.00;3604959;39;20117;-65
2023/12/09 05:26:39;;;;;;;17.50;5.93;;;;;;;7.06;100.00;100602.81;3606906;39;20055;-65
2023/12/09 05:29:06;;;;;;;24.05;5.65;;;;;;;7.08;99.43;100603.63;3611732;39;20053;-65
2023/12/09 05:31:32;;;;;;;23.20;6.15;;;;;;;7.06;99.49;100605.50;3610585;39;20062;-65
2023/12/09 05:33:57;;;;;;;25.02;5.85;;;;;;;7.06;100.00;100600.16;3610104;39;20066;-65
2023/12/09 05:36:23;;;;;;;25.95;6.55;;;;;;;7.05;99.75;100606.44;3609199;39;20050;-66
2023/12/09 05:38:49;;;;;;;17.50;5.05;;;;;;;7.06;100.00;100609.97;3607058;39;20053;-65
2023/12/09 05:41:14;;;;;;;20.00;5.22;;;;;;;7.07;100.00;100604.56;3605962;39;20065;-65
2023/12/09 05:43:40;;;;;;;18.48;5.88;;;;;;;7.05;99.55;100606.44;3610748;39;20094;-65
2023/12/09 05:46:06;;;;;;;18.73;5.50;;;;;;;6.99;100.00;100585.38;3610806;39;20050;-65
2023/12/09 05:48:35;;;;;;;19.45;5.03;;;;;;;7.04;100.00;100594.03;3605501;39;20288;-65
2023/12/09 05:51:01;;;;;;;22.05;4.95;;;;;;;7.06;99.66;100581.44;3609166;39;20085;-65
2023/12/09 05:53:27;;;;;;;25.23;5.15;;;;;;;6.92;100.00;100555.44;3609308;39;20051;-65
2023/12/09 05:55:52;;;;;;;18.45;5.82;;;;;;;7.05;99.95;100581.53;3606882;39;20085;-65
2023/12/09 05:58:18;;;;;;;24.17;5.05;;;;;;;7.01;100.00;100572.81;3611887;39;20069;-65
2023/12/09 06:00:45;;;;;;;21.90;5.10;;;;;;;7.08;100.00;100584.91;3609102;39;20051;-65
2023/12/09 06:03:11;;;;;;;15.40;4.55;;;;;;;7.09;99.61;100586.63;3610720;39;20353;-65
2023/12/09 06:05:36;;;;;;;20.33;5.05;;;;;;;7.10;99.81;100584.81;3606516;39;20065;-65
2023/12/09 06:08:02;;;;;;;29.55;5.60;;;;;;;7.11;99.56;100582.09;3604821;39;20039;-65
2023/12/09 06:10:28;;;;;;;25.27;4.97;;;;;;;7.13;99.63;100582.00;3604696;39;20328;-65
2023/12/09 06:12:53;;;;;;;24.90;4.57;;;;;;;6.92;99.67;100539.41;3611876;39;20066;-66
2023/12/09 06:15:19;;;;;;;27.67;5.28;;;;;;;7.13;98.83;100571.28;3609014;39;20066;-65
2023/12/09 06:17:45;;;;;;;22.27;4.65;;;;;;;7.09;99.08;100559.91;3608344;39;20419;-64
2023/12/09 06:20:11;;;;;;;25.05;4.97;;;;;;;7.00;98.88;100539.00;3607633;39;20059;-64
2023/12/09 06:22:36;;;;;;;21.33;4.72;;;;;;;7.02;99.25;100541.59;3607167;39;20058;-65
2023/12/09 06:25:02;;;;;;;24.75;5.35;;;;;;;7.05;98.60;100536.97;3609052;39;20062;-65
2023/12/09 06:27:28;;;;;;;21.00;5.13;;;;;;;7.03;98.69;100541.50;3608295;39;20046;-64
2023/12/09 06:29:54;;;;;;;21.02;5.63;;;;;;;7.03;98.50;100549.53;3610102;39;20065;-64
2023/12/09 06:32:19;;;;;;;20.85;4.72;;;;;;;7.02;99.38;100546.94;3609544;39;20047;-65
2023/12/09 06:34:45;;;;;;;22.85;5.45;;;;;;;7.01;99.35;100537.19;3613419;39;20081;-65
2023/12/09 06:37:11;;;;;;;21.55;5.03;;;;;;;6.98;99.01;100533.75;3611523;39;20040;-65
2023/12/09 06:39:36;;;;;;;21.33;5.10;;;;;;;6.94;98.82;100518.78;3609159;39;20063;-64
2023/12/09 06:42:03;;;;;;;15.38;4.95;;;;;;;6.95;98.53;100527.69;3610858;39;20062;-65
2023/12/09 06:44:28;;;;;;;20.98;5.15;;;;;;;6.93;98.32;100518.88;3612841;39;20094;-65
2023/12/09 06:46:54;;;;;;;15.65;4.57;;;;;;;6.93;99.33;100510.88;3610471;39;20047;-64
2023/12/09 06:49:19;;;;;;;16.50;4.78;;;;;;;6.94;99.22;100507.25;3611604;39;20135;-64
2023/12/09 06:51:48;;;;;;;24.02;5.30;;;;;;;6.94;99.38;100493.88;3609112;39;20063;-65
2023/12/09 06:54:13;;;;;;;17.70;5.20;;;;;;;6.95;99.20;100490.28;3608316;39;20057;-65
2023/12/09 06:56:39;;;;;;;21.38;5.28;;;;;;;6.95;99.46;100488.47;3607123;39;20051;-65
2023/12/09 06:59:05;;;;;;;21.38;4.88;;;;;;;6.75;99.29;100429.84;3607769;39;20058;-65
2023/12/09 07:01:31;;;;;;;19.60;4.82;;;;;;;7.00;99.83;100457.97;3610786;39;20062;-64
2023/12/09 07:03:57;;;;;;;18.48;5.00;;;;;;;7.00;98.72;100453.47;3607339;39;20319;-64
2023/12/09 07:06:26;;;;;;;16.00;4.38;;;;;;;6.99;98.51;100446.41;3610177;39;20055;-65
2023/12/09 07:08:53;;;;;;;18.50;4.75;;;;;;;6.99;98.58;100446.41;3608672;39;20095;-65
2023/12/09 07:11:22;;;;;;;20.83;4.38;;;;;;;7.01;99.53;100433.84;3608286;39;20103;-64
2023/12/09 07:13:49;;;;;;;16.20;4.63;;;;;;;7.05;99.94;100432.72;3608163;39;20311;-65
2023/12/09 07:16:15;;;;;;;16.73;4.30;;;;;;;6.96;99.50;100406.50;3607701;39;20615;-64
2023/12/09 07:18:46;;;;;;;18.33;4.03;;;;;;;7.13;99.61;100417.13;3607450;39;20055;-65
2023/12/09 07:21:13;;;;;;;20.05;4.15;;;;;;;7.16;98.85;100411.63;3607971;39;20087;-65
2023/12/09 07:23:40;;;;;;;13.05;4.20;;;;;;;7.19;99.15;100410.59;3608841;39;20047;-64
2023/12/09 07:26:06;;;;;;;16.67;4.85;;;;;;;7.29;99.92;100416.28;3609419;39;20087;-64
2023/12/09 07:28:33;;;;;;;18.75;4.78;;;;;;;7.27;99.02;100410.19;3609279;39;20346;-65
2023/12/09 07:30:59;;;;;;;16.00;4.70;;;;;;;7.33;99.07;100428.56;3607283;39;20059;-64
2023/12/09 07:33:25;;;;;;;19.70;4.80;;;;;;;7.35;98.97;100426.66;3607364;39;20059;-64
2023/12/09 07:35:50;;;;;;;23.08;4.93;;;;;;;7.42;98.50;100422.69;3608899;39;20043;-64
2023/12/09 07:38:17;;;;;;;13.98;4.43;;;;;;;7.47;98.23;100414.44;3612931;39;20043;-64
2023/12/09 07:40:44;;;;;;;16.20;4.38;;;;;;;7.49;98.17;100397.34;3607372;39;20356;-64
2023/12/09 07:43:09;;;;;;;14.52;3.78;;;;;;;7.57;97.70;100396.91;3608888;39;20058;-63
2023/12/09 07:45:35;;;;;;;16.67;4.10;;;;;;;7.54;97.58;100389.91;3606697;39;20402;-63
2023/12/09 07:48:01;;;;;;;11.57;3.90;;;;;;;7.59;96.86;100403.91;3609439;39;20051;-63
2023/12/09 07:50:27;;;;;;;12.50;3.90;;;;;;;7.60;97.41;100413.66;3607493;39;20427;-63
2023/12/09 07:52:52;;;;;;;13.00;3.53;;;;;;;7.62;97.36;100397.53;3609263;39;20047;-64
2023/12/09 07:55:18;;;;;;;13.15;3.38;;;;;;;7.46;97.02;100364.59;3591499;39;20074;-63
2023/12/09 07:57:43;;;;;;;17.65;4.20;;;;;;;7.64;97.25;100393.81;3606758;39;20459;-63
2023/12/09 08:00:10;;;;;;;14.45;3.97;;;;;;;7.69;97.21;100388.19;3610995;39;20062;-63
2023/12/09 08:02:36;;;;;;;16.65;3.95;;;;;;;7.66;96.87;100356.28;3609393;39;20047;-63
2023/12/09 08:05:02;;;;;;;14.30;3.58;;;;;;;7.71;97.26;100364.91;3610581;39;20043;-63
2023/12/09 08:07:27;;;;;;;21.80;4.30;;;;;;;7.76;96.41;100353.94;3607935;39;20062;-63
2023/12/09 08:09:53;;;;;;;12.45;3.92;;;;;;;7.76;96.80;100352.09;3607219;39;20413;-63
2023/12/09 08:12:18;;;;;;;15.57;4.10;;;;;;;7.81;96.23;100358.06;3611076;39;20094;-63
2023/12/09 08:14:44;;;;;;;15.45;4.38;;;;;;;7.84;96.67;100362.38;3608165;39;20062;-63
2023/12/09 08:17:10;;;;;;;15.98;3.75;;;;;;;7.87;96.64;100362.22;3608613;39;20063;-63
2023/12/09 08:19:35;;;;;;;15.80;4.88;;;;;;;7.89;96.51;100360.28;3613239;39;20058;-63
2023/12/09 08:22:02;;;;;;;14.07;3.97;;;;;;;7.94;95.86;100352.88;3611308;39;20055;-63
2023/12/09 08:24:28;;;;;;;12.90;3.67;;;;;;;7.96;95.92;100361.69;3609069;39;20325;-64
2023/12/09 08:26:54;;;;;;;14.05;3.53;;;;;;;7.98;96.08;100356.22;3606911;39;20113;-64
2023/12/09 08:29:21;;;;;;;13.90;4.15;;;;;;;8.04;95.92;100350.50;3609672;39;20050;-64
2023/12/09 08:31:49;;;;;;;17.73;4.18;;;;;;;8.10;95.03;100347.47;3609034;39;20075;-64
2023/12/09 08:34:16;;;;;;;11.07;3.30;;;;;;;8.09;94.78;100346.63;3608546;39;20395;-64
2023/12/09 08:36:41;;;;;;;13.80;3.17;;;;;;;8.12;95.08;100349.13;3609199;39;20350;-64
2023/12/09 08:39:08;;;;;;;18.42;3.80;;;;;;;8.12;95.24;100349.13;3609026;39;20051;-64
2023/12/09 08:41:34;;;;;;;12.95;3.70;;;;;;;8.16;94.26;100344.44;3610488;39;20058;-64
2023/12/09 08:44:01;;;;;;;11.95;3.40;;;;;;;8.19;94.41;100343.41;3607971;39;20047;-64
2023/12/09 08:46:27;;;;;;;12.55;3.67;;;;;;;8.23;94.17;100339.56;3610201;39;20051;-63
2023/12/09 08:48:52;;;;;;;12.80;3.80;;;;;;;8.24;93.79;100331.44;3608527;39;20075;-64
2023/12/09 08:51:18;;;;;;;15.38;3.42;;;;;;;8.26;94.32;100337.56;3608526;39;20051;-64
2023/12/09 08:53:44;;;;;;;11.98;3.28;;;;;;;8.30;93.57;100330.22;3609597;39;20409;-64
2023/12/09 08:56:09;;;;;;;12.55;2.88;;;;;;;8.35;93.24;100318.28;3610744;39;20329;-64
2023/12/09 08:58:35;;;;;;;9.15;2.85;;;;;;;8.33;93.06;100319.31;3609890;39;20062;-64
2023/12/09 09:01:01;;;;;;;12.32;3.30;;;;;;;8.39;93.60;100310.94;3610029;39;20058;-64
2023/12/09 09:03:26;;;;;;;13.43;3.30;;;;;;;8.42;92.75;100304.53;3610287;39;20073;-64
2023/12/09 09:05:52;;;;;;;13.35;3.28;;;;;;;8.45;93.42;100302.53;3608185;39;20063;-64
2023/12/09 09:08:18;;;;;;;13.52;3.03;;;;;;;8.45;92.46;100307.88;3610321;39;20401;-64
2023/12/09 09:10:45;;;;;;;15.88;3.53;;;;;;;8.47;92.77;100294.38;3606520;39;20046;-64
2023/12/09 09:13:11;;;;;;;13.18;3.47;;;;;;;8.47;92.57;100279.19;3611142;39;20315;-64
2023/12/09 09:15:36;;;;;;;11.70;3.30;;;;;;;8.49;92.88;100265.69;3609938;39;20069;-64
2023/12/09 09:18:02;;;;;;;51.78;26.48;;;;;;;8.52;93.23;100255.66;3608663;39;20073;-64
2023/12/09 09:20:28;;;;;;;27.42;13.30;;;;;;;8.55;92.08;100247.41;3610435;39;20059;-64
2023/12/09 09:22:54;;;;;;;65.80;29.58;;;;;;;8.45;92.53;100214.16;3608455;39;20163;-64
2023/12/09 09:25:19;;;;;;;36.08;14.80;;;;;;;8.65;92.12;100228.09;3607771;39;20078;-64
2023/12/09 09:27:47;;;;;;;101.63;49.10;;;;;;;8.63;92.82;100217.50;3608423;39;20062;-64
2023/12/09 09:30:13;;;;;;;46.95;18.83;;;;;;;8.69;92.44;100209.06;3606191;39;20054;-64
2023/12/09 09:32:39;;;;;;;16.52;5.03;;;;;;;8.71;92.71;100200.91;3607152;39;20295;-64
2023/12/09 09:35:06;;;;;;;9.48;2.90;;;;;;;8.67;92.64;100200.25;3607167;39;20097;-64
2023/12/09 09:37:31;;;;;;;11.60;2.90;;;;;;;8.78;92.40;100210.25;3612325;39;20244;-64
2023/12/09 09:39:57;;;;;;;11.32;2.83;;;;;;;8.81;91.64;100207.38;3609141;39;20074;-64
2023/12/09 09:42:37;;;;;;;10.43;2.53;;;;;;;8.87;91.49;100215.03;3608834;39;20073;-65
2023/12/09 09:45:21;;;;;;;13.93;3.22;;;;;;;8.88;91.99;100214.09;3606962;39;20151;-65
2023/12/09 09:47:53;;;;;;;10.93;2.70;;;;;;;8.67;92.14;100164.56;3606436;39;20394;-65
2023/12/09 09:50:26;;;;;;;10.25;3.55;;;;;;;8.95;91.40;100202.00;3607823;39;20357;-65
2023/12/09 09:52:53;;;;;;;11.48;4.20;;;;;;;8.96;91.22;100184.97;3607636;39;20067;-65
2023/12/09 09:55:26;;;;;;;11.45;3.20;;;;;;;8.96;90.80;100173.38;3609243;39;20057;-65
2023/12/09 09:57:53;;;;;;;7.57;2.47;;;;;;;8.98;91.41;100171.47;3604752;39;20277;-65
2023/12/09 10:00:21;;;;;;;8.70;2.25;;;;;;;8.99;90.78;100165.13;3609860;39;20055;-65
2023/12/09 10:02:50;;;;;;;9.88;2.58;;;;;;;9.02;90.60;100162.25;3610197;39;20095;-64
2023/12/09 10:05:17;;;;;;;9.65;3.00;;;;;;;9.05;90.46;100162.91;3610094;39;20057;-65
2023/12/09 10:07:44;;;;;;;11.27;2.75;;;;;;;9.03;90.86;100148.72;3608481;39;20053;-65
2023/12/09 10:10:13;;;;;;;11.68;3.03;;;;;;;9.08;90.86;100132.34;3610880;39;20323;-65
2023/12/09 10:12:40;;;;;;;14.32;2.80;;;;;;;9.07;90.74;100122.59;3608117;39;20087;-65
2023/12/09 10:15:06;;;;;;;11.23;2.00;;;;;;;9.15;90.56;100108.69;3611240;39;20588;-65
2023/12/09 10:17:33;;;;;;;9.85;2.85;;;;;;;9.16;90.53;100105.88;3601034;39;20470;-65
2023/12/09 10:20:00;;;;;;;7.45;2.30;;;;;;;9.16;90.31;100094.28;3611779;39;20078;-65
2023/12/09 10:22:28;;;;;;;8.88;2.30;;;;;;;9.11;90.10;100075.84;3608124;39;20061;-65
2023/12/09 10:24:55;;;;;;;9.20;2.65;;;;;;;9.11;90.24;100070.50;3612393;39;20058;-65
2023/12/09 10:27:25;;;;;;;8.77;2.92;;;;;;;9.16;90.13;100070.16;3609921;39;20478;-65
2023/12/09 10:29:53;;;;;;;7.72;2.47;;;;;;;9.16;89.59;100070.16;3608866;39;20050;-65
2023/12/09 10:32:21;;;;;;;8.50;2.80;;;;;;;9.19;89.62;100045.81;3610934;39;20079;-65
2023/12/09 10:34:50;;;;;;;8.82;2.55;;;;;;;9.21;89.54;100043.91;3609875;39;20391;-65
2023/12/09 10:37:18;;;;;;;10.57;2.35;;;;;;;9.20;89.47;100032.31;3609387;39;20055;-65
2023/12/09 10:39:48;;;;;;;12.57;2.47;;;;;;;9.26;89.73;100044.44;3610003;39;20051;-65
2023/12/09 10:42:14;;;;;;;9.23;2.75;;;;;;;9.27;89.59;100035.44;3609386;39;20127;-65
2023/12/09 10:44:41;;;;;;;8.80;2.70;;;;;;;9.29;89.53;100031.69;3609699;39;20047;-65
2023/12/09 10:47:07;;;;;;;9.25;2.47;;;;;;;9.21;89.24;99992.97;3608996;39;20095;-65
2023/12/09 10:49:33;;;;;;;7.53;2.08;;;;;;;9.32;89.85;99995.72;3609419;39;20092;-65
2023/12/09 10:51:59;;;;;;;7.38;2.50;;;;;;;9.34;89.92;99980.41;3606697;39;20047;-65
2023/12/09 10:54:25;;;;;;;8.10;2.30;;;;;;;9.40;89.23;99958.50;3611941;39;20357;-65
2023/12/09 10:56:51;;;;;;;9.70;2.75;;;;;;;9.38;89.97;99955.06;3607205;39;20055;-65
2023/12/09 10:59:20;;;;;;;8.68;2.22;;;;;;;9.37;90.18;99948.00;3606919;39;20054;-65
2023/12/09 11:01:47;;;;;;;9.93;2.33;;;;;;;9.35;90.37;99933.81;3607277;39;20056;-65
2023/12/09 11:04:14;;;;;;;8.02;2.25;;;;;;;9.38;90.87;99930.94;3609105;39;20074;-66
2023/12/09 11:06:44;;;;;;;8.25;1.60;;;;;;;9.34;90.94;99932.13;3605947;39;20047;-66
2023/12/09 11:09:14;;;;;;;6.38;1.92;;;;;;;9.38;92.08;99917.53;3608662;39;20089;-66
2023/12/09 11:11:42;;;;;;;6.47;2.10;;;;;;;9.19;91.94;99876.91;3609483;39;20058;-65
2023/12/09 11:14:10;;;;;;;6.45;2.08;;;;;;;9.39;92.54;99896.94;3610817;39;20090;-65
2023/12/09 11:16:46;;;;;;;7.97;1.90;;;;;;;9.38;92.68;99884.47;3607947;39;20055;-66
2023/12/09 11:19:16;;;;;;;5.68;1.63;;;;;;;9.38;93.11;99879.13;3608877;39;20051;-65